Time;durP1;ratioP1;P1;durP2;ratioP2;P2;SDS_P1;SDS_P2;PMS_P1;PMS_P2;Temp;Humidity;BMP_temperature;BMP_pressure;BME280_temperature;BME280_humidity;BME280_pressure;Samples;Min_cycle;Max_cycle;Signal;HPM_P1;HPM_P2
2021/03/23 00:00:22;;;;;;;7.32;2.92;;;5.70;99.90;;;;;;5154046;27;20045;-59
2021/03/23 00:02:50;;;;;;;7.05;2.90;;;5.70;99.90;;;;;;5154696;27;20046;-60
2021/03/23 00:05:18;;;;;;;6.75;2.78;;;5.80;99.90;;;;;;5154160;27;20060;-59
2021/03/23 00:07:44;;;;;;;5.57;2.92;;;5.80;99.90;;;;;;5154278;27;20058;-59
2021/03/23 00:10:11;;;;;;;7.65;3.28;;;5.80;99.90;;;;;;5154255;27;20444;-59
2021/03/23 00:12:37;;;;;;;5.80;3.38;;;5.80;99.90;;;;;;5153896;27;20177;-59
2021/03/23 00:15:11;;;;;;;8.77;3.05;;;5.80;99.90;;;;;;5153749;27;20050;-59
2021/03/23 00:17:38;;;;;;;5.35;3.05;;;5.80;99.90;;;;;;5153953;27;20061;-59
2021/03/23 00:20:10;;;;;;;5.63;2.85;;;5.80;99.90;;;;;;5153807;27;20066;-60
2021/03/23 00:22:37;;;;;;;8.10;3.08;;;5.80;99.90;;;;;;5153759;27;20091;-59
2021/03/23 00:25:05;;;;;;;6.05;2.72;;;5.80;99.90;;;;;;5153605;27;20067;-59
2021/03/23 00:27:31;;;;;;;8.10;2.92;;;5.90;99.90;;;;;;5153487;27;20091;-59
2021/03/23 00:29:56;;;;;;;4.63;2.90;;;5.90;99.90;;;;;;5153653;27;20034;-59
2021/03/23 00:32:22;;;;;;;4.72;3.50;;;5.90;99.90;;;;;;5153662;27;20113;-59
2021/03/23 00:34:48;;;;;;;4.07;2.55;;;5.90;99.90;;;;;;5153781;27;20051;-59
2021/03/23 00:37:14;;;;;;;9.25;3.50;;;5.90;99.90;;;;;;5153603;27;20038;-59
2021/03/23 00:39:40;;;;;;;6.00;2.80;;;5.90;99.90;;;;;;5153421;27;20472;-59
2021/03/23 00:42:06;;;;;;;9.50;3.60;;;5.90;99.90;;;;;;5153540;27;20499;-59
2021/03/23 00:44:33;;;;;;;4.88;3.00;;;5.90;99.90;;;;;;5153410;27;20464;-59
2021/03/23 00:46:58;;;;;;;4.57;2.70;;;5.90;99.90;;;;;;5153772;27;20051;-59
2021/03/23 00:49:27;;;;;;;6.20;2.77;;;5.90;99.90;;;;;;5135726;27;20065;-59
2021/03/23 00:51:53;;;;;;;6.85;2.60;;;5.90;99.90;;;;;;5153398;27;20039;-59
2021/03/23 00:54:19;;;;;;;8.45;3.28;;;5.90;99.90;;;;;;5153405;27;20108;-60
2021/03/23 00:56:45;;;;;;;5.88;3.05;;;5.80;99.90;;;;;;5153333;27;20476;-59
2021/03/23 00:59:11;;;;;;;5.05;2.40;;;5.90;99.90;;;;;;5153430;27;20034;-59
2021/03/23 01:01:37;;;;;;;6.13;2.88;;;5.90;99.90;;;;;;5134769;27;20043;-59
2021/03/23 01:04:03;;;;;;;5.38;2.78;;;5.90;99.90;;;;;;5153601;27;20130;-59
2021/03/23 01:06:28;;;;;;;4.22;2.55;;;5.90;99.90;;;;;;5153234;27;20403;-59
2021/03/23 01:08:54;;;;;;;5.57;3.42;;;5.90;99.90;;;;;;5153186;27;20035;-59
2021/03/23 01:11:20;;;;;;;6.10;3.00;;;5.90;99.90;;;;;;5153159;27;20091;-59
2021/03/23 01:13:46;;;;;;;4.40;2.90;;;5.90;99.90;;;;;;5153176;27;20189;-59
2021/03/23 01:16:11;;;;;;;5.65;2.75;;;5.90;99.90;;;;;;5153159;27;20039;-59
2021/03/23 01:18:37;;;;;;;7.88;2.80;;;5.90;99.90;;;;;;5153154;27;20121;-59
2021/03/23 01:21:04;;;;;;;6.35;2.85;;;5.90;99.90;;;;;;5152931;27;20042;-59
2021/03/23 01:23:30;;;;;;;8.63;3.13;;;5.90;99.90;;;;;;5153080;27;20130;-59
2021/03/23 01:25:56;;;;;;;8.35;3.28;;;5.90;99.90;;;;;;5155109;27;20113;-60
2021/03/23 01:28:21;;;;;;;7.38;2.90;;;5.90;99.90;;;;;;5157065;27;20045;-59
2021/03/23 01:30:47;;;;;;;5.45;3.42;;;5.90;99.90;;;;;;5157013;27;20475;-60
2021/03/23 01:33:13;;;;;;;8.70;3.42;;;5.90;99.90;;;;;;5138194;27;20136;-59
2021/03/23 01:35:39;;;;;;;8.23;3.50;;;5.90;99.90;;;;;;5157043;27;20053;-59
2021/03/23 01:38:05;;;;;;;6.53;3.25;;;5.90;99.90;;;;;;5156841;27;20038;-60
2021/03/23 01:40:31;;;;;;;7.30;3.47;;;5.90;99.90;;;;;;5156956;27;20039;-59
2021/03/23 01:43:00;;;;;;;10.88;3.90;;;5.80;99.90;;;;;;5156772;27;20495;-59
2021/03/23 01:45:37;;;;;;;11.75;3.80;;;5.80;99.90;;;;;;5156856;27;20075;-59
2021/03/23 01:48:23;;;;;;;11.73;4.35;;;5.80;99.90;;;;;;5156728;27;20418;-59
2021/03/23 01:50:56;;;;;;;8.95;4.53;;;5.80;99.90;;;;;;5156460;27;20039;-59
2021/03/23 01:53:34;;;;;;;9.18;4.10;;;5.80;99.90;;;;;;5156848;27;20042;-59
2021/03/23 01:56:00;;;;;;;11.13;4.90;;;5.70;99.90;;;;;;5156468;27;20042;-59
2021/03/23 01:58:28;;;;;;;9.93;4.97;;;5.70;99.90;;;;;;5156457;27;20126;-59
2021/03/23 02:00:54;;;;;;;7.90;4.60;;;5.60;99.90;;;;;;5156499;27;20111;-59
2021/03/23 02:03:21;;;;;;;9.70;5.38;;;5.60;99.90;;;;;;5137921;27;20050;-59
2021/03/23 02:05:55;;;;;;;7.90;4.85;;;5.50;99.90;;;;;;5156217;27;20472;-59
2021/03/23 02:08:21;;;;;;;9.20;5.15;;;5.50;99.90;;;;;;5156334;27;20042;-59
2021/03/23 02:10:48;;;;;;;7.28;4.90;;;5.50;99.90;;;;;;5156545;27;20063;-59
2021/03/23 02:13:13;;;;;;;12.48;5.50;;;5.50;99.90;;;;;;5155997;27;20400;-59
2021/03/23 02:15:39;;;;;;;8.52;5.25;;;5.40;99.90;;;;;;5156382;27;20047;-60
2021/03/23 02:18:13;;;;;;;13.07;4.93;;;5.40;99.90;;;;;;5156313;27;20046;-59
2021/03/23 02:20:58;;;;;;;10.27;4.60;;;5.30;99.90;;;;;;5156169;27;20046;-59
2021/03/23 02:23:29;;;;;;;8.05;4.57;;;5.40;99.90;;;;;;5156000;27;20126;-59
2021/03/23 02:25:56;;;;;;;9.68;5.10;;;5.30;99.90;;;;;;5155895;27;20053;-59
2021/03/23 02:28:21;;;;;;;11.18;4.95;;;5.30;99.90;;;;;;5155715;27;20047;-59
2021/03/23 02:30:51;;;;;;;8.32;4.60;;;5.30;99.90;;;;;;5136871;27;20478;-59
2021/03/23 02:33:18;;;;;;;8.57;5.13;;;5.20;99.90;;;;;;5155955;27;20046;-59
2021/03/23 02:35:44;;;;;;;7.70;4.10;;;5.20;99.90;;;;;;5155780;27;20125;-59
2021/03/23 02:38:10;;;;;;;10.88;4.55;;;5.10;99.90;;;;;;5155743;27;20133;-59
2021/03/23 02:40:35;;;;;;;10.85;5.28;;;5.10;99.90;;;;;;5155642;27;20399;-59
2021/03/23 02:43:01;;;;;;;8.60;5.07;;;5.20;99.90;;;;;;5155581;27;20484;-59
2021/03/23 02:45:30;;;;;;;8.85;5.18;;;5.20;99.90;;;;;;5155696;27;20099;-59
2021/03/23 02:47:56;;;;;;;8.82;4.95;;;5.20;99.90;;;;;;5155568;27;20043;-59
2021/03/23 02:50:21;;;;;;;8.98;4.85;;;5.20;99.90;;;;;;5155486;27;20134;-59
2021/03/23 02:52:47;;;;;;;9.75;5.00;;;5.20;99.90;;;;;;5155425;27;20536;-59
2021/03/23 02:55:14;;;;;;;9.48;5.03;;;5.30;99.90;;;;;;5155316;27;20494;-59
2021/03/23 02:57:40;;;;;;;10.15;5.85;;;5.30;99.90;;;;;;5155325;27;20499;-59
2021/03/23 03:00:09;;;;;;;10.50;4.95;;;5.30;99.90;;;;;;5155226;27;20500;-59
2021/03/23 03:02:35;;;;;;;14.10;5.38;;;5.30;99.90;;;;;;5155221;27;20519;-59
2021/03/23 03:05:00;;;;;;;8.25;5.25;;;5.30;99.90;;;;;;5155224;27;20204;-59
2021/03/23 03:07:26;;;;;;;12.20;5.78;;;5.30;99.90;;;;;;5155089;27;20487;-59
2021/03/23 03:09:53;;;;;;;14.27;6.05;;;5.30;99.90;;;;;;5155103;27;20043;-59
2021/03/23 03:12:18;;;;;;;11.23;5.18;;;5.30;99.90;;;;;;5154743;27;20050;-59
2021/03/23 03:14:44;;;;;;;12.38;6.13;;;5.40;99.90;;;;;;5155230;27;20039;-59
2021/03/23 03:17:10;;;;;;;10.95;6.15;;;5.40;99.90;;;;;;5155012;27;20061;-59
2021/03/23 03:19:35;;;;;;;15.68;6.53;;;5.40;99.90;;;;;;5155076;27;20050;-59
2021/03/23 03:22:01;;;;;;;8.95;6.30;;;5.40;99.90;;;;;;5154725;27;20039;-60
2021/03/23 03:24:27;;;;;;;11.57;5.95;;;5.40;99.90;;;;;;5154766;27;20535;-59
2021/03/23 03:26:52;;;;;;;12.90;6.55;;;5.30;99.90;;;;;;5154973;27;20042;-59
2021/03/23 03:29:18;;;;;;;11.25;6.70;;;5.40;99.90;;;;;;5155193;27;20058;-59
2021/03/23 03:31:44;;;;;;;11.18;6.35;;;5.40;99.90;;;;;;5154807;27;20039;-59
2021/03/23 03:34:10;;;;;;;13.52;6.82;;;5.50;99.90;;;;;;5135697;27;20043;-59
2021/03/23 03:36:35;;;;;;;12.13;6.30;;;5.50;99.90;;;;;;5154632;27;20126;-59
2021/03/23 03:39:03;;;;;;;12.68;7.32;;;5.50;99.90;;;;;;5154413;27;20039;-59
2021/03/23 03:41:29;;;;;;;12.80;7.00;;;5.50;99.90;;;;;;5154454;27;20118;-60
2021/03/23 03:43:55;;;;;;;14.77;7.82;;;5.50;99.90;;;;;;5154451;27;20122;-59
2021/03/23 03:46:21;;;;;;;11.13;7.47;;;5.50;99.90;;;;;;5154366;27;20095;-59
2021/03/23 03:48:47;;;;;;;13.38;6.97;;;5.50;99.90;;;;;;5153916;27;20432;-59
2021/03/23 03:51:13;;;;;;;13.93;7.50;;;5.50;99.90;;;;;;5154272;27;20046;-59
2021/03/23 03:53:38;;;;;;;16.73;8.13;;;5.50;99.90;;;;;;5154443;27;20074;-59
2021/03/23 03:56:05;;;;;;;18.52;8.52;;;5.50;99.90;;;;;;5154224;27;20129;-59
2021/03/23 03:58:30;;;;;;;18.95;9.02;;;5.40;99.90;;;;;;5154212;27;20159;-59
2021/03/23 04:00:58;;;;;;;14.38;8.00;;;5.50;99.90;;;;;;5154257;27;20066;-59
2021/03/23 04:03:27;;;;;;;17.63;8.13;;;5.40;99.90;;;;;;5154133;27;20039;-59
2021/03/23 04:05:54;;;;;;;;;;;5.40;99.90;;;;;;5154233;27;20490;-59
2021/03/23 04:08:24;;;;;;;19.38;8.75;;;5.40;99.90;;;;;;5153830;27;19943;-59
2021/03/23 04:10:51;;;;;;;18.15;8.30;;;5.40;99.90;;;;;;5153984;27;20042;-59
2021/03/23 04:13:18;;;;;;;17.88;10.07;;;5.40;99.90;;;;;;5153640;27;20070;-59
2021/03/23 04:15:45;;;;;;;18.02;9.70;;;5.40;99.90;;;;;;5153811;27;20407;-60
2021/03/23 04:18:13;;;;;;;19.10;10.00;;;5.40;99.90;;;;;;5153715;27;20037;-59
2021/03/23 04:20:40;;;;;;;22.65;9.88;;;5.40;99.90;;;;;;5153697;27;20514;-59
2021/03/23 04:23:08;;;;;;;16.88;9.50;;;5.50;99.90;;;;;;5153734;27;20038;-59
2021/03/23 04:25:34;;;;;;;21.48;10.20;;;5.50;99.90;;;;;;5153439;27;20062;-59
2021/03/23 04:28:00;;;;;;;20.13;10.60;;;5.50;99.90;;;;;;5153577;27;20077;-59
2021/03/23 04:30:27;;;;;;;23.55;11.18;;;5.50;99.90;;;;;;5153911;27;20035;-59
2021/03/23 04:32:55;;;;;;;27.48;11.23;;;5.50;99.90;;;;;;5153577;27;20090;-59
2021/03/23 04:35:23;;;;;;;17.75;10.90;;;5.50;99.90;;;;;;5153538;27;20043;-59
2021/03/23 04:37:49;;;;;;;23.08;10.85;;;5.50;99.90;;;;;;5153524;27;20106;-59
2021/03/23 04:40:15;;;;;;;18.63;11.05;;;5.50;99.90;;;;;;5153488;27;20464;-59
2021/03/23 04:42:40;;;;;;;16.40;10.38;;;5.60;99.90;;;;;;5153483;27;20118;-59
2021/03/23 04:45:07;;;;;;;21.00;11.02;;;5.60;99.90;;;;;;5153367;27;20113;-59
2021/03/23 04:47:33;;;;;;;22.05;11.48;;;5.60;99.90;;;;;;5153415;27;20066;-59
2021/03/23 04:49:58;;;;;;;17.77;9.70;;;5.60;99.90;;;;;;5153298;27;20077;-59
2021/03/23 04:52:24;;;;;;;20.15;12.00;;;5.50;99.90;;;;;;5153393;27;20035;-59
2021/03/23 04:54:50;;;;;;;20.70;11.27;;;5.60;99.90;;;;;;5153450;27;20049;-59
2021/03/23 04:57:15;;;;;;;19.98;11.52;;;5.60;99.90;;;;;;5153300;27;20039;-59
2021/03/23 04:59:41;;;;;;;22.98;11.45;;;5.60;99.90;;;;;;5135062;27;20050;-59
2021/03/23 05:02:07;;;;;;;20.92;11.98;;;5.50;99.90;;;;;;5157935;27;20054;-59
2021/03/23 05:04:33;;;;;;;17.15;10.93;;;5.60;99.90;;;;;;5157375;27;20039;-59
2021/03/23 05:06:59;;;;;;;19.83;10.63;;;5.60;99.90;;;;;;5157664;27;20043;-59
2021/03/23 05:09:24;;;;;;;28.10;11.90;;;5.60;99.90;;;;;;5157767;27;20423;-59
2021/03/23 05:11:50;;;;;;;19.60;11.52;;;5.60;99.90;;;;;;5157203;27;20084;-59
2021/03/23 05:14:16;;;;;;;22.60;12.65;;;5.60;99.90;;;;;;5157397;27;20043;-59
2021/03/23 05:16:41;;;;;;;22.58;11.73;;;5.60;99.90;;;;;;5157434;27;20135;-59
2021/03/23 05:19:07;;;;;;;25.90;13.23;;;5.60;99.90;;;;;;5157129;27;20042;-59
2021/03/23 05:21:33;;;;;;;23.73;12.85;;;5.60;99.90;;;;;;5157379;27;20115;-59
2021/03/23 05:24:00;;;;;;;20.50;12.73;;;5.60;99.90;;;;;;5157130;27;20113;-59
2021/03/23 05:26:27;;;;;;;20.80;11.85;;;5.60;99.90;;;;;;5157157;27;20047;-59
2021/03/23 05:28:55;;;;;;;25.00;12.50;;;5.60;99.90;;;;;;5157120;27;20054;-59
2021/03/23 05:31:22;;;;;;;23.27;12.05;;;5.60;99.90;;;;;;5157054;27;20098;-59
2021/03/23 05:33:50;;;;;;;22.35;12.07;;;5.60;99.90;;;;;;5156848;27;20122;-59
2021/03/23 05:36:16;;;;;;;21.23;11.95;;;5.60;99.90;;;;;;5156995;27;20043;-60
2021/03/23 05:38:42;;;;;;;21.95;11.93;;;5.60;99.90;;;;;;5156892;27;20395;-59
2021/03/23 05:41:17;;;;;;;19.38;11.80;;;5.50;99.90;;;;;;5156907;27;20050;-59
2021/03/23 05:43:52;;;;;;;19.20;11.30;;;5.60;99.90;;;;;;5157117;27;20432;-59
2021/03/23 05:46:32;;;;;;;20.15;11.68;;;5.50;99.90;;;;;;5156565;27;20616;-59
2021/03/23 05:49:32;;;;;;;20.17;10.80;;;5.50;99.90;;;;;;5157162;27;20482;-59
2021/03/23 05:52:24;;;;;;;19.38;11.65;;;5.50;99.90;;;;;;5156587;27;20042;-59
2021/03/23 05:54:50;;;;;;;23.65;12.05;;;5.50;99.90;;;;;;5137829;27;20047;-60
2021/03/23 05:57:40;;;;;;;24.60;14.63;;;5.40;99.90;;;;;;5156472;27;20039;-59
2021/03/23 06:00:18;;;;;;;26.95;14.38;;;5.40;99.90;;;;;;5156377;27;20058;-59
2021/03/23 06:02:53;;;;;;;26.55;14.02;;;5.40;99.90;;;;;;5138134;27;20070;-59
2021/03/23 06:05:43;;;;;;;24.83;14.75;;;5.40;99.90;;;;;;5156439;27;20065;-59
2021/03/23 06:08:29;;;;;;;25.23;14.63;;;5.40;99.90;;;;;;5156427;27;20133;-59
2021/03/23 06:11:21;;;;;;;33.28;16.55;;;5.40;99.90;;;;;;5155938;27;20284;-59
2021/03/23 06:13:56;;;;;;;36.28;18.77;;;5.40;99.90;;;;;;5143434;27;20043;-59
2021/03/23 06:16:43;;;;;;;48.30;21.63;;;5.40;99.90;;;;;;5155277;27;20047;-59
2021/03/23 06:19:23;;;;;;;44.55;22.58;;;5.40;99.90;;;;;;5155378;27;20034;-60
2021/03/23 06:22:26;;;;;;;44.72;23.65;;;5.50;99.90;;;;;;5154858;27;20039;-59
2021/03/23 06:25:00;;;;;;;53.03;24.33;;;5.50;99.90;;;;;;5154895;27;20083;-60
2021/03/23 06:27:36;;;;;;;64.68;27.48;;;5.50;99.90;;;;;;5154877;27;20081;-60
2021/03/23 06:30:18;;;;;;;80.30;31.70;;;5.50;99.90;;;;;;5154633;27;20050;-59
2021/03/23 06:32:51;;;;;;;79.38;31.15;;;5.50;99.90;;;;;;5154884;27;20453;-59
2021/03/23 06:35:28;;;;;;;77.18;33.35;;;5.50;99.90;;;;;;5154804;27;20050;-59
2021/03/23 06:37:53;;;;;;;87.95;32.45;;;5.60;99.90;;;;;;5154607;27;20039;-59
2021/03/23 06:40:23;;;;;;;86.18;32.97;;;5.60;99.90;;;;;;5154378;27;20041;-59
2021/03/23 06:42:52;;;;;;;78.88;33.70;;;5.60;99.90;;;;;;5154480;27;20506;-59
2021/03/23 06:45:21;;;;;;;;;;;5.60;99.90;;;;;;5154995;27;20576;-59
2021/03/23 06:47:48;;;;;;;66.35;32.28;;;5.60;99.90;;;;;;5154640;27;19975;-59
2021/03/23 06:50:30;;;;;;;79.00;33.58;;;5.70;99.90;;;;;;5154589;27;20528;-59
2021/03/23 06:53:15;;;;;;;72.85;32.35;;;5.70;99.90;;;;;;5154119;27;20065;-59
2021/03/23 06:55:42;;;;;;;81.85;34.90;;;5.70;99.90;;;;;;5154302;27;20042;-59
2021/03/23 06:58:25;;;;;;;73.60;33.33;;;5.70;99.90;;;;;;5154344;27;20071;-59
2021/03/23 07:01:11;;;;;;;73.22;34.28;;;5.80;99.90;;;;;;5154548;27;20050;-59
2021/03/23 07:03:38;;;;;;;69.90;32.33;;;5.80;99.90;;;;;;5154185;27;20383;-59
2021/03/23 07:06:23;;;;;;;65.70;31.88;;;5.80;99.90;;;;;;5154359;27;20047;-60
2021/03/23 07:09:08;;;;;;;72.75;33.47;;;5.90;99.90;;;;;;5154262;27;20095;-60
2021/03/23 07:14:40;;;;;;;61.67;32.55;;;5.90;99.90;;;;;;5151112;27;20398;-57
2021/03/23 07:17:09;;;;;;;62.08;33.25;;;6.00;99.90;;;;;;5150600;27;20053;-57
2021/03/23 07:19:53;;;;;;;66.38;33.30;;;5.90;99.90;;;;;;5151113;27;20126;-59
2021/03/23 07:22:27;;;;;;;65.45;33.10;;;6.00;99.90;;;;;;5150891;27;20045;-59
2021/03/23 07:24:56;;;;;;;60.13;30.83;;;6.00;99.90;;;;;;5150968;27;20122;-59
2021/03/23 07:27:25;;;;;;;75.30;34.22;;;6.00;99.90;;;;;;5150609;27;20476;-59
2021/03/23 07:30:30;;;;;;;66.43;30.90;;;6.10;99.90;;;;;;5150546;27;20434;-59
2021/03/23 07:33:01;;;;;;;60.08;32.40;;;6.10;99.90;;;;;;5150984;27;20062;-59
2021/03/23 07:35:33;;;;;;;69.70;34.15;;;6.20;99.90;;;;;;5150772;27;20404;-59
2021/03/23 07:38:11;;;;;;;69.78;32.00;;;6.20;99.90;;;;;;5150442;27;20465;-59
2021/03/23 07:40:41;;;;;;;66.72;33.50;;;6.20;99.90;;;;;;5150931;27;20043;-59
2021/03/23 07:43:31;;;;;;;70.95;34.30;;;6.30;99.90;;;;;;5150697;27;20051;-59
2021/03/23 07:46:19;;;;;;;67.70;33.30;;;6.30;99.90;;;;;;5150392;27;20050;-59
2021/03/23 07:48:51;;;;;;;59.72;32.75;;;6.30;99.90;;;;;;5150272;27;20125;-59
2021/03/23 07:51:30;;;;;;;63.83;31.27;;;6.40;99.90;;;;;;5148998;27;20047;-59
2021/03/23 07:54:23;;;;;;;65.13;32.50;;;6.50;99.90;;;;;;5150525;27;20047;-59
2021/03/23 07:56:58;;;;;;;57.53;31.15;;;6.50;99.90;;;;;;5150340;27;20046;-59
2021/03/23 07:59:46;;;;;;;64.78;30.98;;;6.50;99.90;;;;;;5150195;27;20039;-59
2021/03/23 08:02:31;;;;;;;56.35;31.55;;;6.50;99.90;;;;;;5150034;27;20039;-59
2021/03/23 08:05:16;;;;;;;53.50;30.55;;;6.60;99.90;;;;;;5150059;27;20502;-59
2021/03/23 08:08:09;;;;;;;55.95;30.73;;;6.60;99.90;;;;;;5149831;27;20070;-59
2021/03/23 08:10:45;;;;;;;58.40;29.77;;;6.60;99.90;;;;;;5149948;27;20433;-59
2021/03/23 08:13:40;;;;;;;52.33;29.33;;;6.70;99.90;;;;;;5149753;27;20051;-59
2021/03/23 08:16:33;;;;;;;44.35;27.15;;;6.80;99.90;;;;;;5085913;28;20474;-59
2021/03/23 08:19:05;;;;;;;52.97;28.23;;;6.80;99.90;;;;;;5086139;28;20056;-59
2021/03/23 08:21:51;;;;;;;44.83;27.15;;;6.80;99.90;;;;;;5085834;28;20075;-59
2021/03/23 08:24:49;;;;;;;53.03;27.15;;;6.90;99.90;;;;;;5080900;28;20522;-59
2021/03/23 08:27:26;;;;;;;43.85;26.15;;;6.90;99.90;;;;;;5072346;28;20097;-59
2021/03/23 08:30:11;;;;;;;47.92;27.75;;;6.90;99.90;;;;;;5072293;28;20486;-59
2021/03/23 08:32:59;;;;;;;44.92;27.08;;;7.00;99.90;;;;;;5072234;28;20223;-58
2021/03/23 08:35:33;;;;;;;39.70;23.80;;;7.00;99.90;;;;;;5055617;28;20092;-59
2021/03/23 08:38:27;;;;;;;42.83;26.13;;;7.10;99.90;;;;;;5054944;28;20037;-59
2021/03/23 08:41:10;;;;;;;43.47;24.63;;;7.10;99.90;;;;;;5072041;28;20087;-59
2021/03/23 08:43:37;;;;;;;41.95;26.13;;;7.10;99.90;;;;;;5072261;28;20052;-59
2021/03/23 08:46:16;;;;;;;42.17;26.83;;;7.10;99.90;;;;;;5072143;28;20432;-59
2021/03/23 08:48:55;;;;;;;39.60;25.15;;;7.20;99.90;;;;;;5071993;28;20143;-59
2021/03/23 08:51:24;;;;;;;39.67;24.13;;;7.20;99.90;;;;;;5071881;28;20068;-59
2021/03/23 08:54:04;;;;;;;37.90;23.35;;;7.20;99.90;;;;;;5128961;27;20047;-59
2021/03/23 08:56:42;;;;;;;37.33;24.17;;;7.30;99.90;;;;;;5135227;27;20117;-59
2021/03/23 08:59:41;;;;;;;39.33;24.35;;;7.20;99.90;;;;;;5135090;27;20523;-59
2021/03/23 09:02:07;;;;;;;35.72;22.95;;;7.20;99.90;;;;;;5134988;27;20043;-59
2021/03/23 09:04:35;;;;;;;34.95;22.30;;;7.40;99.90;;;;;;5135149;27;20033;-59
2021/03/23 09:07:22;;;;;;;34.47;22.17;;;7.30;99.90;;;;;;5135227;27;20388;-59
2021/03/23 09:09:51;;;;;;;36.53;22.27;;;7.40;99.90;;;;;;5134821;27;20524;-59
2021/03/23 09:12:37;;;;;;;34.00;22.75;;;7.40;99.90;;;;;;5134824;27;20046;-59
2021/03/23 09:15:18;;;;;;;33.75;22.10;;;7.40;99.90;;;;;;5134725;27;20042;-59
2021/03/23 09:18:05;;;;;;;32.90;21.63;;;7.40;99.90;;;;;;5135095;27;20039;-59
2021/03/23 09:20:35;;;;;;;32.78;20.77;;;7.40;99.90;;;;;;5133488;27;20480;-59
2021/03/23 09:23:25;;;;;;;32.83;20.77;;;7.50;99.90;;;;;;5134438;27;20392;-59
2021/03/23 09:26:17;;;;;;;35.20;21.02;;;7.50;99.90;;;;;;5134732;27;20125;-59
2021/03/23 09:28:45;;;;;;;35.78;21.33;;;7.60;99.90;;;;;;5134379;27;20063;-59
2021/03/23 09:31:15;;;;;;;29.80;21.58;;;7.70;99.90;;;;;;5134364;27;20046;-59
2021/03/23 09:33:54;;;;;;;34.83;21.40;;;7.70;99.90;;;;;;5134581;27;20039;-59
2021/03/23 09:36:40;;;;;;;32.38;21.00;;;7.80;99.90;;;;;;5133474;27;20130;-59
2021/03/23 09:39:15;;;;;;;29.35;20.95;;;7.90;99.90;;;;;;5134437;27;20043;-59
2021/03/23 09:41:43;;;;;;;31.30;20.73;;;7.90;99.90;;;;;;5134272;27;20047;-60
2021/03/23 09:44:15;;;;;;;33.35;21.38;;;8.00;99.90;;;;;;5134696;27;20039;-59
2021/03/23 09:46:46;;;;;;;32.10;20.58;;;7.90;99.90;;;;;;5134182;27;20374;-59
2021/03/23 09:49:20;;;;;;;33.45;21.25;;;8.00;99.90;;;;;;5134161;27;20092;-59
2021/03/23 09:51:48;;;;;;;32.65;21.73;;;8.00;99.90;;;;;;5132980;27;20050;-59
2021/03/23 09:54:34;;;;;;;36.35;22.63;;;8.00;99.90;;;;;;5134000;27;20051;-59
2021/03/23 09:57:10;;;;;;;32.10;21.42;;;8.00;99.90;;;;;;5134235;27;20053;-59
2021/03/23 09:59:43;;;;;;;32.83;21.17;;;8.00;99.90;;;;;;5132599;27;20481;-60
2021/03/23 10:02:32;;;;;;;32.53;21.20;;;8.00;99.90;;;;;;5134222;27;20457;-59
2021/03/23 10:05:17;;;;;;;30.52;21.20;;;8.10;99.90;;;;;;5133661;27;20469;-59
2021/03/23 10:07:44;;;;;;;30.13;20.33;;;8.30;99.90;;;;;;5133756;27;20047;-59
2021/03/23 10:10:27;;;;;;;31.92;21.30;;;8.40;99.90;;;;;;5133746;27;20039;-59
2021/03/23 10:12:59;;;;;;;28.33;20.10;;;8.50;99.90;;;;;;5133384;27;20051;-59
2021/03/23 10:15:39;;;;;;;29.52;19.55;;;8.70;99.90;;;;;;5133765;27;20050;-59
2021/03/23 10:18:17;;;;;;;31.60;20.63;;;9.10;99.90;;;;;;5133643;27;20197;-59
2021/03/23 10:20:45;;;;;;;28.10;19.65;;;9.40;99.90;;;;;;5133691;27;20039;-59
2021/03/23 10:23:11;;;;;;;29.70;20.90;;;9.70;99.90;;;;;;5133690;27;20096;-60
2021/03/23 10:25:41;;;;;;;32.33;20.02;;;9.80;99.90;;;;;;5133625;27;20116;-59
2021/03/23 10:28:07;;;;;;;30.77;20.67;;;10.20;99.90;;;;;;5133495;27;20067;-59
2021/03/23 10:30:36;;;;;;;31.88;21.20;;;10.50;99.90;;;;;;5133368;27;20480;-59
2021/03/23 10:33:22;;;;;;;30.23;20.63;;;10.70;99.50;;;;;;5133234;27;20065;-59
2021/03/23 10:35:49;;;;;;;34.03;20.42;;;11.10;99.90;;;;;;5133498;27;20057;-59
2021/03/23 10:38:27;;;;;;;26.63;19.75;;;11.40;98.40;;;;;;5133664;27;20050;-59
2021/03/23 10:40:54;;;;;;;29.58;20.20;;;11.70;98.60;;;;;;5133358;27;20496;-60
2021/03/23 10:43:41;;;;;;;29.55;20.67;;;12.00;98.10;;;;;;5133278;27;20073;-59
2021/03/23 10:46:27;;;;;;;27.60;20.75;;;12.20;97.20;;;;;;5133366;27;20409;-59
2021/03/23 10:48:53;;;;;;;24.92;19.77;;;12.10;97.00;;;;;;5132849;27;20063;-59
2021/03/23 10:51:28;;;;;;;27.20;20.23;;;12.20;96.50;;;;;;5133224;27;20119;-59
2021/03/23 10:54:24;;;;;;;26.15;20.08;;;12.20;96.80;;;;;;5133033;27;20058;-59
2021/03/23 10:56:55;;;;;;;22.60;19.33;;;12.10;96.40;;;;;;5130329;27;20051;-60
2021/03/23 10:59:27;;;;;;;25.48;19.35;;;11.90;96.50;;;;;;5132937;27;20097;-59
2021/03/23 11:02:13;;;;;;;26.67;20.63;;;11.80;96.10;;;;;;5133101;27;20043;-60
2021/03/23 11:05:08;;;;;;;29.02;20.95;;;11.70;96.50;;;;;;5132924;27;20043;-59
2021/03/23 11:07:38;;;;;;;26.35;19.17;;;11.70;96.80;;;;;;5132885;27;20075;-60
2021/03/23 11:10:09;;;;;;;27.10;20.20;;;11.60;97.40;;;;;;5132878;27;20532;-60
2021/03/23 11:12:35;;;;;;;29.55;22.58;;;11.90;97.30;;;;;;5132567;27;20055;-60
2021/03/23 11:15:01;;;;;;;25.77;20.15;;;11.90;96.10;;;;;;5132695;28;20400;-59
2021/03/23 11:17:28;;;;;;;26.77;20.70;;;11.80;96.60;;;;;;5132713;27;20039;-60
2021/03/23 11:20:00;;;;;;;26.20;21.13;;;12.20;97.50;;;;;;5133134;27;20063;-60
2021/03/23 11:22:31;;;;;;;25.98;21.02;;;12.50;96.50;;;;;;5132785;27;20043;-61
2021/03/23 11:24:57;;;;;;;25.77;20.40;;;12.50;95.60;;;;;;5132979;27;20043;-59
2021/03/23 11:27:26;;;;;;;30.08;19.58;;;12.70;94.60;;;;;;5132447;28;20485;-59
2021/03/23 11:29:56;;;;;;;24.63;19.45;;;12.90;96.10;;;;;;5132773;27;20523;-59
2021/03/23 11:32:23;;;;;;;28.25;22.73;;;13.00;96.10;;;;;;5132604;27;20053;-60
2021/03/23 11:34:49;;;;;;;29.20;22.80;;;13.20;95.60;;;;;;5132715;27;20047;-59
2021/03/23 11:37:15;;;;;;;26.75;21.50;;;13.40;95.20;;;;;;5132586;27;20039;-60
2021/03/23 11:39:41;;;;;;;28.33;20.98;;;13.40;94.20;;;;;;5132580;27;20377;-60
2021/03/23 11:42:17;;;;;;;28.13;22.20;;;13.50;94.60;;;;;;5132703;28;20622;-60
2021/03/23 11:44:46;;;;;;;29.55;22.73;;;13.20;93.90;;;;;;5132445;27;20118;-60
2021/03/23 11:47:26;;;;;;;28.77;21.48;;;13.10;94.20;;;;;;5132569;27;20078;-60
2021/03/23 11:49:57;;;;;;;;;;;13.30;94.80;;;;;;5132981;27;20139;-60
2021/03/23 11:52:24;;;;;;;28.63;21.50;;;13.00;94.40;;;;;;5132252;28;19924;-60
2021/03/23 11:54:50;;;;;;;31.52;23.23;;;12.80;94.00;;;;;;5132237;27;20050;-61
2021/03/23 11:57:17;;;;;;;31.70;22.05;;;12.90;95.10;;;;;;5132498;27;20043;-60
2021/03/23 11:59:43;;;;;;;35.60;23.02;;;12.80;94.50;;;;;;5133918;27;20043;-60
2021/03/23 12:02:10;;;;;;;34.53;23.60;;;12.40;94.70;;;;;;5136064;27;20042;-62
2021/03/23 12:04:36;;;;;;;32.85;23.42;;;12.20;95.50;;;;;;5136142;27;20039;-60
2021/03/23 12:07:14;;;;;;;33.35;23.27;;;11.90;96.10;;;;;;5136080;27;20071;-61
2021/03/23 12:09:55;;;;;;;34.10;23.92;;;11.80;96.80;;;;;;5136449;27;20118;-61
2021/03/23 12:12:34;;;;;;;36.80;24.15;;;11.90;97.60;;;;;;5135740;27;20073;-61
2021/03/23 12:15:29;;;;;;;33.78;23.85;;;11.90;96.60;;;;;;5135829;27;20481;-61
2021/03/23 12:17:55;;;;;;;30.77;22.73;;;11.60;96.70;;;;;;5072386;28;20114;-61
2021/03/23 12:20:24;;;;;;;40.20;23.02;;;11.40;96.80;;;;;;5072185;28;20041;-61
2021/03/23 12:22:52;;;;;;;32.40;23.25;;;11.30;97.90;;;;;;5072363;28;20053;-61
2021/03/23 12:25:20;;;;;;;31.17;22.58;;;11.20;97.70;;;;;;5072438;28;20052;-61
2021/03/23 12:27:46;;;;;;;31.40;23.27;;;11.40;97.30;;;;;;5072462;28;20049;-60
2021/03/23 12:30:13;;;;;;;30.63;22.75;;;11.50;97.50;;;;;;5055233;28;20049;-61
2021/03/23 12:32:40;;;;;;;31.42;22.33;;;11.60;97.80;;;;;;5055418;28;20494;-61
2021/03/23 12:35:11;;;;;;;37.47;23.95;;;11.50;97.00;;;;;;5072187;28;20045;-61
2021/03/23 12:37:39;;;;;;;32.10;24.73;;;11.40;97.40;;;;;;5072315;28;20131;-60
2021/03/23 12:40:07;;;;;;;44.83;24.23;;;11.50;97.30;;;;;;5072078;28;20040;-61
2021/03/23 12:42:33;;;;;;;32.17;22.48;;;11.40;96.70;;;;;;5071907;28;20044;-61
2021/03/23 12:44:59;;;;;;;34.25;25.77;;;12.00;97.50;;;;;;5072036;28;20150;-61
2021/03/23 12:47:25;;;;;;;36.13;26.02;;;12.30;96.90;;;;;;5071868;28;20045;-61
2021/03/23 12:49:51;;;;;;;32.78;24.67;;;12.30;96.20;;;;;;5071956;28;20040;-60
2021/03/23 12:52:21;;;;;;;34.30;24.40;;;12.50;95.80;;;;;;5071745;28;20048;-60
2021/03/23 12:54:49;;;;;;;32.42;25.13;;;12.60;95.50;;;;;;5103464;27;20043;-60
2021/03/23 12:57:27;;;;;;;35.25;25.40;;;12.50;95.00;;;;;;5135075;27;20031;-60
2021/03/23 12:59:56;;;;;;;35.17;24.65;;;12.50;95.30;;;;;;5135124;27;20039;-60
2021/03/23 13:02:27;;;;;;;34.80;23.90;;;13.00;96.60;;;;;;5135202;27;20093;-61
2021/03/23 13:04:54;;;;;;;35.17;24.73;;;13.10;95.00;;;;;;5135044;27;20039;-60
2021/03/23 13:07:33;;;;;;;34.35;23.83;;;13.30;94.00;;;;;;5135053;27;20035;-61